Aeroporto :
LOGIN :

Iscrizione | Disclaimer

   EN    FR    IT 

 










Sommario :    VFR   VFR Marginale   IFR   IFR Intensivo   IFR Molto Intensivo
Visibilità : 
Base nubi : 
>= 8 km
>= 3000ft
5 / 8 km
1000 / 3000 ft
1500m / 5 km
500 / 1000 ft
800 / 1500m
200 / 500 ft
< 800m
< 200 ft
Simboli :   Temporali  Nebbia  Neve Forte  Precipitazioni Forti  Vento > 20 kt
SIGMETs :   Varie  Temporali  Ghiacco  Turbolenza  Onda orograficha  Ceneri Vulcaniche






- Altitudine del aeroporto : 302 ft
- Codice IATA : CGN


EDDK - Cologne Bonn

ULTIMO METAR :
  • 181150Z 25013KT 9999 FEW015 SCT020CB 06/02 Q1025 NOSIG

METARs OBSOLETI :
  • 181120Z 24010KT 9999 FEW015 FEW019CB 06/03 Q1025 NOSIG
  • 181050Z 25012KT 220V280 9999 -SHRA FEW016 SCT025TCU 05/03 Q1025 NOSIG
  • 181020Z 26011KT 9999 VCSH FEW011 SCT022TCU 05/02 Q1025 NOSIG
  • 180950Z 25012KT 9999 VCSH FEW011 SCT023TCU 06/02 Q1025 NOSIG
  • 180920Z 23007KT 200V260 9999 -SHRA FEW011 SCT024TCU BKN033 05/03 Q1024 NOSIG

TAF TAF EDDK
Valido dal 18 a 12 ore il 19 a 18 ore UTC


181100Z 1812/1918 27008KT 9999 BKN025
PROB30
TEMPO 1813/1818 SHRAGS BKN020CB
BECMG 1823/1902 BKN012
PROB30
TEMPO 1902/1912 4500 BR BKN008
BECMG 1905/1908 34006KT



MetMap, La meteo Aeronautica in un colpo d'occhio ! - Copyright ORBIFLY Dicembre 2007 - Disclaimer

ORBIFLY MET'MAP TEAM :

Programmazione e sviluppo : Alexandra Zaïnal
Concezione : Baudouin d'Aumeries
Aiuto per la programmazione : Marc-Olivier Méhu
Supporto tecnico e logistico : Manuel Goepfert
Aiuto per la traduzione : Arnaldo La Scala

Contatto : metmap@orbifly.com




FONTI E CREDITI :

   NOAA